sensor_id;sensor_type;location;lat;lon;timestamp;P1;durP1;ratioP1;P2;durP2;ratioP2
23716;SDS011;22094;52.130;5.598;2024-02-15T00:01:20;37.60;;;18.92;;
23716;SDS011;22094;52.130;5.598;2024-02-15T00:03:46;32.38;;;18.50;;
23716;SDS011;22094;52.130;5.598;2024-02-15T00:06:12;33.83;;;19.13;;
23716;SDS011;22094;52.130;5.598;2024-02-15T00:08:37;32.80;;;18.95;;
23716;SDS011;22094;52.130;5.598;2024-02-15T00:11:03;34.03;;;19.88;;
23716;SDS011;22094;52.130;5.598;2024-02-15T00:13:28;37.70;;;20.50;;
23716;SDS011;22094;52.130;5.598;2024-02-15T00:15:54;33.50;;;20.17;;
23716;SDS011;22094;52.130;5.598;2024-02-15T00:18:20;36.65;;;19.48;;
23716;SDS011;22094;52.130;5.598;2024-02-15T00:20:46;35.75;;;18.92;;
23716;SDS011;22094;52.130;5.598;2024-02-15T00:23:12;31.13;;;18.27;;
23716;SDS011;22094;52.130;5.598;2024-02-15T00:25:37;30.77;;;17.83;;
23716;SDS011;22094;52.130;5.598;2024-02-15T00:28:03;29.08;;;17.17;;
23716;SDS011;22094;52.130;5.598;2024-02-15T00:30:29;29.35;;;17.00;;
23716;SDS011;22094;52.130;5.598;2024-02-15T00:32:54;29.38;;;16.80;;
23716;SDS011;22094;52.130;5.598;2024-02-15T00:35:20;26.35;;;16.10;;
23716;SDS011;22094;52.130;5.598;2024-02-15T00:37:46;27.95;;;16.08;;
23716;SDS011;22094;52.130;5.598;2024-02-15T00:40:12;29.33;;;16.27;;
23716;SDS011;22094;52.130;5.598;2024-02-15T00:42:38;25.50;;;15.18;;
23716;SDS011;22094;52.130;5.598;2024-02-15T00:45:04;27.20;;;16.08;;
23716;SDS011;22094;52.130;5.598;2024-02-15T00:47:30;24.75;;;15.20;;
23716;SDS011;22094;52.130;5.598;2024-02-15T00:49:55;28.88;;;16.42;;
23716;SDS011;22094;52.130;5.598;2024-02-15T00:52:21;28.58;;;15.88;;
23716;SDS011;22094;52.130;5.598;2024-02-15T00:54:47;26.85;;;16.00;;
23716;SDS011;22094;52.130;5.598;2024-02-15T00:57:13;26.67;;;16.17;;
23716;SDS011;22094;52.130;5.598;2024-02-15T00:59:38;29.30;;;16.23;;
23716;SDS011;22094;52.130;5.598;2024-02-15T01:02:04;30.98;;;17.77;;
23716;SDS011;22094;52.130;5.598;2024-02-15T01:04:32;34.38;;;17.80;;
23716;SDS011;22094;52.130;5.598;2024-02-15T01:06:59;29.00;;;17.83;;
23716;SDS011;22094;52.130;5.598;2024-02-15T01:09:24;35.03;;;17.25;;
23716;SDS011;22094;52.130;5.598;2024-02-15T01:11:50;33.65;;;17.63;;
23716;SDS011;22094;52.130;5.598;2024-02-15T01:14:15;34.80;;;18.65;;
23716;SDS011;22094;52.130;5.598;2024-02-15T01:16:41;27.98;;;17.75;;
23716;SDS011;22094;52.130;5.598;2024-02-15T01:19:08;35.42;;;19.05;;
23716;SDS011;22094;52.130;5.598;2024-02-15T01:21:34;29.83;;;19.33;;
23716;SDS011;22094;52.130;5.598;2024-02-15T01:23:59;28.98;;;19.27;;
23716;SDS011;22094;52.130;5.598;2024-02-15T01:26:28;38.13;;;21.55;;
23716;SDS011;22094;52.130;5.598;2024-02-15T01:28:57;37.60;;;23.60;;
23716;SDS011;22094;52.130;5.598;2024-02-15T01:31:22;44.28;;;24.13;;
23716;SDS011;22094;52.130;5.598;2024-02-15T01:33:48;49.97;;;28.55;;
23716;SDS011;22094;52.130;5.598;2024-02-15T01:36:17;51.17;;;30.77;;
23716;SDS011;22094;52.130;5.598;2024-02-15T01:38:43;57.58;;;32.60;;
23716;SDS011;22094;52.130;5.598;2024-02-15T01:41:10;52.30;;;30.73;;
23716;SDS011;22094;52.130;5.598;2024-02-15T01:43:35;65.97;;;33.38;;
23716;SDS011;22094;52.130;5.598;2024-02-15T01:46:02;53.53;;;33.25;;
23716;SDS011;22094;52.130;5.598;2024-02-15T01:48:33;60.15;;;34.45;;
23716;SDS011;22094;52.130;5.598;2024-02-15T01:51:00;59.70;;;34.53;;
23716;SDS011;22094;52.130;5.598;2024-02-15T01:53:26;59.33;;;33.97;;
23716;SDS011;22094;52.130;5.598;2024-02-15T01:55:52;55.28;;;33.85;;
23716;SDS011;22094;52.130;5.598;2024-02-15T01:58:20;61.28;;;34.97;;
23716;SDS011;22094;52.130;5.598;2024-02-15T02:00:45;58.85;;;33.10;;
23716;SDS011;22094;52.130;5.598;2024-02-15T02:03:13;59.05;;;34.40;;
23716;SDS011;22094;52.130;5.598;2024-02-15T02:05:40;58.72;;;34.20;;
23716;SDS011;22094;52.130;5.598;2024-02-15T02:08:06;57.67;;;33.35;;
23716;SDS011;22094;52.130;5.598;2024-02-15T02:10:34;49.75;;;31.77;;
23716;SDS011;22094;52.130;5.598;2024-02-15T02:13:03;51.60;;;31.90;;
23716;SDS011;22094;52.130;5.598;2024-02-15T02:15:33;52.10;;;31.08;;
23716;SDS011;22094;52.130;5.598;2024-02-15T02:18:00;55.83;;;33.03;;
23716;SDS011;22094;52.130;5.598;2024-02-15T02:20:26;49.30;;;31.73;;
23716;SDS011;22094;52.130;5.598;2024-02-15T02:22:53;52.00;;;31.10;;
23716;SDS011;22094;52.130;5.598;2024-02-15T02:25:21;55.17;;;31.48;;
23716;SDS011;22094;52.130;5.598;2024-02-15T02:27:47;54.47;;;31.80;;
23716;SDS011;22094;52.130;5.598;2024-02-15T02:30:14;50.33;;;31.00;;
23716;SDS011;22094;52.130;5.598;2024-02-15T02:32:43;53.25;;;31.25;;
23716;SDS011;22094;52.130;5.598;2024-02-15T02:35:09;54.38;;;31.38;;
23716;SDS011;22094;52.130;5.598;2024-02-15T02:37:38;45.05;;;28.55;;
23716;SDS011;22094;52.130;5.598;2024-02-15T02:40:05;48.17;;;29.20;;
23716;SDS011;22094;52.130;5.598;2024-02-15T02:42:34;55.30;;;29.60;;
23716;SDS011;22094;52.130;5.598;2024-02-15T02:45:01;53.35;;;28.83;;
23716;SDS011;22094;52.130;5.598;2024-02-15T02:47:26;53.03;;;28.85;;
23716;SDS011;22094;52.130;5.598;2024-02-15T02:49:52;48.40;;;28.50;;
23716;SDS011;22094;52.130;5.598;2024-02-15T02:52:18;48.80;;;27.02;;
23716;SDS011;22094;52.130;5.598;2024-02-15T02:54:43;46.30;;;27.60;;
23716;SDS011;22094;52.130;5.598;2024-02-15T02:57:09;48.50;;;27.52;;
23716;SDS011;22094;52.130;5.598;2024-02-15T02:59:34;42.25;;;26.08;;
23716;SDS011;22094;52.130;5.598;2024-02-15T03:02:00;49.47;;;25.83;;
23716;SDS011;22094;52.130;5.598;2024-02-15T03:04:28;41.10;;;24.83;;
23716;SDS011;22094;52.130;5.598;2024-02-15T03:06:54;45.40;;;24.45;;
23716;SDS011;22094;52.130;5.598;2024-02-15T03:09:22;48.33;;;25.70;;
23716;SDS011;22094;52.130;5.598;2024-02-15T03:11:47;43.55;;;24.08;;
23716;SDS011;22094;52.130;5.598;2024-02-15T03:14:14;45.55;;;25.00;;
23716;SDS011;22094;52.130;5.598;2024-02-15T03:16:40;46.13;;;25.02;;
23716;SDS011;22094;52.130;5.598;2024-02-15T03:19:05;44.97;;;24.20;;
23716;SDS011;22094;52.130;5.598;2024-02-15T03:21:34;45.90;;;24.33;;
23716;SDS011;22094;52.130;5.598;2024-02-15T03:23:59;36.88;;;22.30;;
23716;SDS011;22094;52.130;5.598;2024-02-15T03:26:31;46.45;;;24.20;;
23716;SDS011;22094;52.130;5.598;2024-02-15T03:29:01;41.88;;;23.10;;
23716;SDS011;22094;52.130;5.598;2024-02-15T03:31:28;45.55;;;23.67;;
23716;SDS011;22094;52.130;5.598;2024-02-15T03:33:53;37.50;;;21.95;;
23716;SDS011;22094;52.130;5.598;2024-02-15T03:36:19;40.00;;;22.33;;
23716;SDS011;22094;52.130;5.598;2024-02-15T03:38:46;37.50;;;23.13;;
23716;SDS011;22094;52.130;5.598;2024-02-15T03:41:12;47.42;;;23.40;;
23716;SDS011;22094;52.130;5.598;2024-02-15T03:43:37;45.35;;;22.83;;
23716;SDS011;22094;52.130;5.598;2024-02-15T03:46:03;42.80;;;22.90;;
23716;SDS011;22094;52.130;5.598;2024-02-15T03:48:29;47.80;;;23.75;;
23716;SDS011;22094;52.130;5.598;2024-02-15T03:50:57;44.50;;;22.17;;
23716;SDS011;22094;52.130;5.598;2024-02-15T03:53:23;42.95;;;22.58;;
23716;SDS011;22094;52.130;5.598;2024-02-15T03:55:49;47.22;;;23.63;;
23716;SDS011;22094;52.130;5.598;2024-02-15T03:58:18;48.03;;;22.02;;
23716;SDS011;22094;52.130;5.598;2024-02-15T04:00:44;37.90;;;21.15;;
23716;SDS011;22094;52.130;5.598;2024-02-15T04:03:10;44.97;;;22.10;;
23716;SDS011;22094;52.130;5.598;2024-02-15T04:05:36;38.28;;;21.10;;
23716;SDS011;22094;52.130;5.598;2024-02-15T04:08:01;36.10;;;19.75;;
23716;SDS011;22094;52.130;5.598;2024-02-15T04:10:27;39.40;;;20.35;;
23716;SDS011;22094;52.130;5.598;2024-02-15T04:12:52;40.20;;;20.17;;
23716;SDS011;22094;52.130;5.598;2024-02-15T04:15:18;46.90;;;20.67;;
23716;SDS011;22094;52.130;5.598;2024-02-15T04:17:44;40.90;;;19.42;;
23716;SDS011;22094;52.130;5.598;2024-02-15T04:20:10;32.53;;;19.63;;
23716;SDS011;22094;52.130;5.598;2024-02-15T04:22:37;40.88;;;20.10;;
23716;SDS011;22094;52.130;5.598;2024-02-15T04:25:04;36.30;;;19.73;;
23716;SDS011;22094;52.130;5.598;2024-02-15T04:27:31;34.97;;;19.05;;
23716;SDS011;22094;52.130;5.598;2024-02-15T04:29:57;36.40;;;19.20;;
23716;SDS011;22094;52.130;5.598;2024-02-15T04:32:22;39.25;;;18.70;;
23716;SDS011;22094;52.130;5.598;2024-02-15T04:34:48;38.58;;;17.65;;
23716;SDS011;22094;52.130;5.598;2024-02-15T04:37:13;36.50;;;18.30;;
23716;SDS011;22094;52.130;5.598;2024-02-15T04:39:39;36.70;;;18.05;;
23716;SDS011;22094;52.130;5.598;2024-02-15T04:42:05;32.60;;;18.42;;
23716;SDS011;22094;52.130;5.598;2024-02-15T04:44:32;38.08;;;17.55;;
23716;SDS011;22094;52.130;5.598;2024-02-15T04:47:00;37.75;;;17.35;;
23716;SDS011;22094;52.130;5.598;2024-02-15T04:49:28;29.85;;;16.92;;
23716;SDS011;22094;52.130;5.598;2024-02-15T04:51:54;32.33;;;17.52;;
23716;SDS011;22094;52.130;5.598;2024-02-15T04:54:22;30.25;;;17.02;;
23716;SDS011;22094;52.130;5.598;2024-02-15T04:56:47;33.08;;;16.00;;
23716;SDS011;22094;52.130;5.598;2024-02-15T04:59:13;29.33;;;16.23;;
23716;SDS011;22094;52.130;5.598;2024-02-15T05:01:42;31.88;;;16.10;;
23716;SDS011;22094;52.130;5.598;2024-02-15T05:04:08;27.25;;;15.93;;
23716;SDS011;22094;52.130;5.598;2024-02-15T05:06:35;32.88;;;16.00;;
23716;SDS011;22094;52.130;5.598;2024-02-15T05:09:01;31.23;;;15.48;;
23716;SDS011;22094;52.130;5.598;2024-02-15T05:11:32;35.38;;;15.45;;
23716;SDS011;22094;52.130;5.598;2024-02-15T05:14:00;34.35;;;15.85;;
23716;SDS011;22094;52.130;5.598;2024-02-15T05:16:26;32.28;;;15.32;;
23716;SDS011;22094;52.130;5.598;2024-02-15T05:18:52;34.22;;;16.65;;
23716;SDS011;22094;52.130;5.598;2024-02-15T05:21:18;35.17;;;16.08;;
23716;SDS011;22094;52.130;5.598;2024-02-15T05:23:44;36.83;;;15.07;;
23716;SDS011;22094;52.130;5.598;2024-02-15T05:26:11;22.98;;;14.43;;
23716;SDS011;22094;52.130;5.598;2024-02-15T05:28:37;27.35;;;14.70;;
23716;SDS011;22094;52.130;5.598;2024-02-15T05:31:18;28.70;;;14.55;;
23716;SDS011;22094;52.130;5.598;2024-02-15T05:33:49;34.40;;;15.52;;
23716;SDS011;22094;52.130;5.598;2024-02-15T05:36:15;31.73;;;14.88;;
23716;SDS011;22094;52.130;5.598;2024-02-15T05:38:45;26.35;;;15.38;;
23716;SDS011;22094;52.130;5.598;2024-02-15T05:41:15;31.83;;;15.77;;
23716;SDS011;22094;52.130;5.598;2024-02-15T05:43:41;32.25;;;16.02;;
23716;SDS011;22094;52.130;5.598;2024-02-15T05:46:07;26.08;;;14.65;;
23716;SDS011;22094;52.130;5.598;2024-02-15T05:48:33;36.53;;;15.75;;
23716;SDS011;22094;52.130;5.598;2024-02-15T05:51:00;27.35;;;14.30;;
23716;SDS011;22094;52.130;5.598;2024-02-15T05:53:26;33.58;;;17.15;;
23716;SDS011;22094;52.130;5.598;2024-02-15T05:55:51;31.90;;;15.88;;
23716;SDS011;22094;52.130;5.598;2024-02-15T05:58:17;31.45;;;15.25;;
23716;SDS011;22094;52.130;5.598;2024-02-15T06:00:43;30.35;;;14.90;;
23716;SDS011;22094;52.130;5.598;2024-02-15T06:03:17;26.50;;;14.32;;
23716;SDS011;22094;52.130;5.598;2024-02-15T06:05:51;30.88;;;15.57;;
23716;SDS011;22094;52.130;5.598;2024-02-15T06:08:17;22.90;;;13.75;;
23716;SDS011;22094;52.130;5.598;2024-02-15T06:10:43;25.77;;;14.60;;
23716;SDS011;22094;52.130;5.598;2024-02-15T06:13:09;28.48;;;14.98;;
23716;SDS011;22094;52.130;5.598;2024-02-15T06:15:35;25.83;;;14.40;;
23716;SDS011;22094;52.130;5.598;2024-02-15T06:18:01;27.67;;;14.85;;
23716;SDS011;22094;52.130;5.598;2024-02-15T06:20:28;24.65;;;15.13;;
23716;SDS011;22094;52.130;5.598;2024-02-15T06:22:55;26.15;;;15.00;;
23716;SDS011;22094;52.130;5.598;2024-02-15T06:25:21;29.40;;;15.27;;
23716;SDS011;22094;52.130;5.598;2024-02-15T06:27:48;26.05;;;15.00;;
23716;SDS011;22094;52.130;5.598;2024-02-15T06:30:16;27.35;;;15.88;;
23716;SDS011;22094;52.130;5.598;2024-02-15T06:33:00;30.35;;;15.40;;
23716;SDS011;22094;52.130;5.598;2024-02-15T06:35:44;29.58;;;15.43;;
23716;SDS011;22094;52.130;5.598;2024-02-15T06:38:28;27.30;;;15.60;;
23716;SDS011;22094;52.130;5.598;2024-02-15T06:41:13;23.38;;;14.77;;
23716;SDS011;22094;52.130;5.598;2024-02-15T06:43:39;27.67;;;15.30;;
23716;SDS011;22094;52.130;5.598;2024-02-15T06:46:07;27.02;;;15.90;;
23716;SDS011;22094;52.130;5.598;2024-02-15T06:48:33;29.63;;;15.95;;
23716;SDS011;22094;52.130;5.598;2024-02-15T06:50:59;26.65;;;16.40;;
23716;SDS011;22094;52.130;5.598;2024-02-15T06:53:24;30.30;;;17.20;;
23716;SDS011;22094;52.130;5.598;2024-02-15T06:55:50;29.42;;;16.75;;
23716;SDS011;22094;52.130;5.598;2024-02-15T06:58:16;27.40;;;17.33;;
23716;SDS011;22094;52.130;5.598;2024-02-15T07:00:44;30.23;;;17.83;;
23716;SDS011;22094;52.130;5.598;2024-02-15T07:03:10;26.83;;;18.38;;
23716;SDS011;22094;52.130;5.598;2024-02-15T07:05:36;26.52;;;17.67;;
23716;SDS011;22094;52.130;5.598;2024-02-15T07:08:07;24.95;;;17.15;;
23716;SDS011;22094;52.130;5.598;2024-02-15T07:10:36;26.95;;;17.40;;
23716;SDS011;22094;52.130;5.598;2024-02-15T07:13:03;30.20;;;17.20;;
23716;SDS011;22094;52.130;5.598;2024-02-15T07:15:29;29.98;;;18.33;;
23716;SDS011;22094;52.130;5.598;2024-02-15T07:17:58;26.02;;;17.25;;
23716;SDS011;22094;52.130;5.598;2024-02-15T07:20:24;29.30;;;18.02;;
23716;SDS011;22094;52.130;5.598;2024-02-15T07:22:49;28.38;;;18.42;;
23716;SDS011;22094;52.130;5.598;2024-02-15T07:25:15;27.13;;;17.70;;
23716;SDS011;22094;52.130;5.598;2024-02-15T07:27:40;27.58;;;19.08;;
23716;SDS011;22094;52.130;5.598;2024-02-15T07:30:06;26.17;;;17.80;;
23716;SDS011;22094;52.130;5.598;2024-02-15T07:32:33;28.95;;;18.60;;
23716;SDS011;22094;52.130;5.598;2024-02-15T07:35:00;24.42;;;17.35;;
23716;SDS011;22094;52.130;5.598;2024-02-15T07:37:26;27.65;;;17.95;;
23716;SDS011;22094;52.130;5.598;2024-02-15T07:39:52;27.40;;;17.95;;
23716;SDS011;22094;52.130;5.598;2024-02-15T07:42:17;22.15;;;17.02;;
23716;SDS011;22094;52.130;5.598;2024-02-15T07:44:43;26.60;;;17.30;;
23716;SDS011;22094;52.130;5.598;2024-02-15T07:47:09;26.55;;;18.30;;
23716;SDS011;22094;52.130;5.598;2024-02-15T07:49:35;23.70;;;16.23;;
23716;SDS011;22094;52.130;5.598;2024-02-15T07:52:01;29.58;;;17.00;;
23716;SDS011;22094;52.130;5.598;2024-02-15T07:54:29;26.25;;;16.45;;
23716;SDS011;22094;52.130;5.598;2024-02-15T07:56:58;27.40;;;15.93;;
23716;SDS011;22094;52.130;5.598;2024-02-15T07:59:24;23.08;;;16.00;;
23716;SDS011;22094;52.130;5.598;2024-02-15T08:01:49;24.40;;;16.33;;
23716;SDS011;22094;52.130;5.598;2024-02-15T08:04:18;23.60;;;16.05;;
23716;SDS011;22094;52.130;5.598;2024-02-15T08:06:45;25.88;;;15.57;;
23716;SDS011;22094;52.130;5.598;2024-02-15T08:09:14;22.48;;;14.43;;
23716;SDS011;22094;52.130;5.598;2024-02-15T08:11:43;18.35;;;13.52;;
23716;SDS011;22094;52.130;5.598;2024-02-15T08:14:08;28.15;;;15.30;;
23716;SDS011;22094;52.130;5.598;2024-02-15T08:16:36;25.27;;;14.10;;
23716;SDS011;22094;52.130;5.598;2024-02-15T08:19:02;23.40;;;13.65;;
23716;SDS011;22094;52.130;5.598;2024-02-15T08:21:30;18.25;;;12.43;;
23716;SDS011;22094;52.130;5.598;2024-02-15T08:24:01;15.93;;;12.85;;
23716;SDS011;22094;52.130;5.598;2024-02-15T08:26:30;21.17;;;12.73;;
23716;SDS011;22094;52.130;5.598;2024-02-15T08:29:08;19.60;;;13.10;;
23716;SDS011;22094;52.130;5.598;2024-02-15T08:31:34;17.33;;;13.07;;
23716;SDS011;22094;52.130;5.598;2024-02-15T08:34:03;17.30;;;12.18;;
23716;SDS011;22094;52.130;5.598;2024-02-15T08:36:35;18.88;;;12.57;;
23716;SDS011;22094;52.130;5.598;2024-02-15T08:39:01;20.63;;;12.75;;
23716;SDS011;22094;52.130;5.598;2024-02-15T08:41:26;17.00;;;12.40;;
23716;SDS011;22094;52.130;5.598;2024-02-15T08:43:52;14.85;;;11.05;;
23716;SDS011;22094;52.130;5.598;2024-02-15T08:46:18;12.65;;;10.68;;
23716;SDS011;22094;52.130;5.598;2024-02-15T08:48:44;14.93;;;10.68;;
23716;SDS011;22094;52.130;5.598;2024-02-15T08:51:13;14.20;;;9.77;;
23716;SDS011;22094;52.130;5.598;2024-02-15T08:53:38;15.40;;;9.77;;
23716;SDS011;22094;52.130;5.598;2024-02-15T08:56:04;17.27;;;10.57;;
23716;SDS011;22094;52.130;5.598;2024-02-15T08:58:31;14.77;;;9.80;;
23716;SDS011;22094;52.130;5.598;2024-02-15T09:00:57;13.05;;;8.85;;
23716;SDS011;22094;52.130;5.598;2024-02-15T09:03:23;14.48;;;8.77;;
23716;SDS011;22094;52.130;5.598;2024-02-15T09:05:49;11.52;;;8.27;;
23716;SDS011;22094;52.130;5.598;2024-02-15T09:08:14;12.32;;;8.38;;
23716;SDS011;22094;52.130;5.598;2024-02-15T09:10:40;10.65;;;7.35;;
23716;SDS011;22094;52.130;5.598;2024-02-15T09:13:07;10.65;;;7.10;;
23716;SDS011;22094;52.130;5.598;2024-02-15T09:15:33;9.10;;;7.32;;
23716;SDS011;22094;52.130;5.598;2024-02-15T09:17:59;9.20;;;7.47;;
23716;SDS011;22094;52.130;5.598;2024-02-15T09:20:24;13.75;;;8.43;;
23716;SDS011;22094;52.130;5.598;2024-02-15T09:22:53;11.63;;;7.85;;
23716;SDS011;22094;52.130;5.598;2024-02-15T09:25:20;11.73;;;7.40;;
23716;SDS011;22094;52.130;5.598;2024-02-15T09:27:49;9.25;;;7.13;;
23716;SDS011;22094;52.130;5.598;2024-02-15T09:30:16;10.85;;;6.90;;
23716;SDS011;22094;52.130;5.598;2024-02-15T09:32:43;10.55;;;7.20;;
23716;SDS011;22094;52.130;5.598;2024-02-15T09:35:10;10.25;;;7.43;;
23716;SDS011;22094;52.130;5.598;2024-02-15T09:37:42;8.45;;;7.00;;
23716;SDS011;22094;52.130;5.598;2024-02-15T09:40:14;11.23;;;7.22;;
23716;SDS011;22094;52.130;5.598;2024-02-15T09:42:41;8.75;;;7.05;;
23716;SDS011;22094;52.130;5.598;2024-02-15T09:45:09;8.82;;;7.53;;
23716;SDS011;22094;52.130;5.598;2024-02-15T09:47:39;12.40;;;7.30;;
23716;SDS011;22094;52.130;5.598;2024-02-15T09:50:06;12.27;;;7.90;;
23716;SDS011;22094;52.130;5.598;2024-02-15T09:52:32;12.48;;;7.93;;
23716;SDS011;22094;52.130;5.598;2024-02-15T09:55:00;11.07;;;8.35;;
23716;SDS011;22094;52.130;5.598;2024-02-15T09:57:29;12.95;;;8.20;;
23716;SDS011;22094;52.130;5.598;2024-02-15T10:00:00;11.57;;;9.15;;
23716;SDS011;22094;52.130;5.598;2024-02-15T10:02:27;14.57;;;8.90;;
23716;SDS011;22094;52.130;5.598;2024-02-15T10:04:53;16.00;;;9.00;;
23716;SDS011;22094;52.130;5.598;2024-02-15T10:07:23;18.38;;;9.05;;
23716;SDS011;22094;52.130;5.598;2024-02-15T10:09:49;12.77;;;8.75;;
23716;SDS011;22094;52.130;5.598;2024-02-15T10:12:17;11.60;;;8.48;;
23716;SDS011;22094;52.130;5.598;2024-02-15T10:14:50;12.88;;;8.05;;
23716;SDS011;22094;52.130;5.598;2024-02-15T10:17:18;13.50;;;8.00;;
23716;SDS011;22094;52.130;5.598;2024-02-15T10:19:44;12.35;;;7.78;;
23716;SDS011;22094;52.130;5.598;2024-02-15T10:22:21;12.70;;;7.85;;
23716;SDS011;22094;52.130;5.598;2024-02-15T10:24:49;12.57;;;7.97;;
23716;SDS011;22094;52.130;5.598;2024-02-15T10:27:16;12.40;;;7.22;;
23716;SDS011;22094;52.130;5.598;2024-02-15T10:29:48;12.10;;;7.00;;
23716;SDS011;22094;52.130;5.598;2024-02-15T10:32:14;13.48;;;6.95;;
23716;SDS011;22094;52.130;5.598;2024-02-15T10:34:44;11.30;;;7.30;;
23716;SDS011;22094;52.130;5.598;2024-02-15T10:37:13;12.15;;;7.55;;
23716;SDS011;22094;52.130;5.598;2024-02-15T10:39:43;12.95;;;7.13;;
23716;SDS011;22094;52.130;5.598;2024-02-15T10:42:09;11.73;;;7.05;;
23716;SDS011;22094;52.130;5.598;2024-02-15T10:44:36;13.48;;;7.50;;
23716;SDS011;22094;52.130;5.598;2024-02-15T10:47:03;12.63;;;7.88;;
23716;SDS011;22094;52.130;5.598;2024-02-15T10:49:32;13.57;;;7.75;;
23716;SDS011;22094;52.130;5.598;2024-02-15T10:51:59;11.65;;;7.05;;
23716;SDS011;22094;52.130;5.598;2024-02-15T10:54:48;9.63;;;6.72;;
23716;SDS011;22094;52.130;5.598;2024-02-15T10:57:21;9.32;;;6.13;;
23716;SDS011;22094;52.130;5.598;2024-02-15T10:59:54;12.68;;;6.20;;
23716;SDS011;22094;52.130;5.598;2024-02-15T11:02:29;8.73;;;5.60;;
23716;SDS011;22094;52.130;5.598;2024-02-15T11:05:05;12.75;;;5.93;;
23716;SDS011;22094;52.130;5.598;2024-02-15T11:07:35;7.85;;;5.60;;
23716;SDS011;22094;52.130;5.598;2024-02-15T11:10:01;9.95;;;6.00;;
23716;SDS011;22094;52.130;5.598;2024-02-15T11:12:31;13.13;;;6.13;;
23716;SDS011;22094;52.130;5.598;2024-02-15T11:14:56;8.90;;;5.85;;
23716;SDS011;22094;52.130;5.598;2024-02-15T11:17:44;11.50;;;6.18;;
23716;SDS011;22094;52.130;5.598;2024-02-15T11:23:03;11.15;;;5.57;;
23716;SDS011;22094;52.130;5.598;2024-02-15T11:25:33;10.50;;;5.38;;
23716;SDS011;22094;52.130;5.598;2024-02-15T11:30:47;8.32;;;5.18;;
23716;SDS011;22094;52.130;5.598;2024-02-15T11:38:36;8.93;;;5.85;;
23716;SDS011;22094;52.130;5.598;2024-02-15T11:41:06;8.65;;;5.63;;
23716;SDS011;22094;52.130;5.598;2024-02-15T11:46:16;13.23;;;5.80;;
23716;SDS011;22094;52.130;5.598;2024-02-15T11:48:43;14.75;;;5.80;;
23716;SDS011;22094;52.130;5.598;2024-02-15T11:51:28;8.98;;;5.47;;
23716;SDS011;22094;52.130;5.598;2024-02-15T11:53:58;10.30;;;5.32;;
23716;SDS011;22094;52.130;5.598;2024-02-15T11:56:31;8.57;;;5.60;;
23716;SDS011;22094;52.130;5.598;2024-02-15T11:59:38;10.32;;;6.25;;
23716;SDS011;22094;52.130;5.598;2024-02-15T12:02:39;11.40;;;6.95;;
23716;SDS011;22094;52.130;5.598;2024-02-15T12:05:23;9.35;;;6.10;;
23716;SDS011;22094;52.130;5.598;2024-02-15T12:08:07;9.13;;;5.50;;
23716;SDS011;22094;52.130;5.598;2024-02-15T12:11:00;10.35;;;6.30;;
23716;SDS011;22094;52.130;5.598;2024-02-15T12:13:49;11.15;;;6.35;;
23716;SDS011;22094;52.130;5.598;2024-02-15T12:16:35;10.18;;;6.68;;
23716;SDS011;22094;52.130;5.598;2024-02-15T12:19:19;11.57;;;6.38;;
23716;SDS011;22094;52.130;5.598;2024-02-15T12:21:46;8.68;;;6.68;;
23716;SDS011;22094;52.130;5.598;2024-02-15T12:24:12;10.52;;;6.57;;
23716;SDS011;22094;52.130;5.598;2024-02-15T12:26:38;10.07;;;6.22;;
23716;SDS011;22094;52.130;5.598;2024-02-15T12:29:06;11.10;;;6.05;;
23716;SDS011;22094;52.130;5.598;2024-02-15T12:31:33;11.52;;;6.50;;
23716;SDS011;22094;52.130;5.598;2024-02-15T12:34:04;11.50;;;7.07;;
23716;SDS011;22094;52.130;5.598;2024-02-15T12:36:34;11.70;;;6.20;;
23716;SDS011;22094;52.130;5.598;2024-02-15T12:39:04;9.02;;;5.85;;
23716;SDS011;22094;52.130;5.598;2024-02-15T12:41:37;8.45;;;6.32;;
23716;SDS011;22094;52.130;5.598;2024-02-15T12:44:05;8.75;;;5.80;;
23716;SDS011;22094;52.130;5.598;2024-02-15T12:46:33;8.63;;;5.80;;
23716;SDS011;22094;52.130;5.598;2024-02-15T12:51:50;8.55;;;5.63;;
23716;SDS011;22094;52.130;5.598;2024-02-15T12:54:22;8.45;;;5.38;;
23716;SDS011;22094;52.130;5.598;2024-02-15T12:56:48;9.80;;;5.03;;
23716;SDS011;22094;52.130;5.598;2024-02-15T12:59:16;6.35;;;4.63;;
23716;SDS011;22094;52.130;5.598;2024-02-15T13:01:41;7.60;;;4.57;;
23716;SDS011;22094;52.130;5.598;2024-02-15T13:04:07;6.45;;;4.40;;
23716;SDS011;22094;52.130;5.598;2024-02-15T13:06:33;8.93;;;4.68;;
23716;SDS011;22094;52.130;5.598;2024-02-15T13:09:01;8.90;;;4.97;;
23716;SDS011;22094;52.130;5.598;2024-02-15T13:11:30;7.65;;;4.70;;
23716;SDS011;22094;52.130;5.598;2024-02-15T13:13:57;9.23;;;4.60;;
23716;SDS011;22094;52.130;5.598;2024-02-15T13:16:22;9.63;;;4.53;;
23716;SDS011;22094;52.130;5.598;2024-02-15T13:18:48;7.88;;;4.47;;
23716;SDS011;22094;52.130;5.598;2024-02-15T13:21:14;9.68;;;5.25;;
23716;SDS011;22094;52.130;5.598;2024-02-15T13:23:39;5.78;;;4.25;;
23716;SDS011;22094;52.130;5.598;2024-02-15T13:26:05;8.95;;;4.68;;
23716;SDS011;22094;52.130;5.598;2024-02-15T13:28:33;7.15;;;4.30;;
23716;SDS011;22094;52.130;5.598;2024-02-15T13:30:59;10.75;;;4.63;;
23716;SDS011;22094;52.130;5.598;2024-02-15T13:33:24;8.05;;;4.15;;
23716;SDS011;22094;52.130;5.598;2024-02-15T13:35:51;8.95;;;4.18;;
23716;SDS011;22094;52.130;5.598;2024-02-15T13:38:17;9.30;;;4.63;;
23716;SDS011;22094;52.130;5.598;2024-02-15T13:40:50;10.35;;;4.63;;
23716;SDS011;22094;52.130;5.598;2024-02-15T13:43:16;6.80;;;4.40;;
23716;SDS011;22094;52.130;5.598;2024-02-15T13:45:42;7.65;;;4.32;;
23716;SDS011;22094;52.130;5.598;2024-02-15T13:48:09;7.05;;;4.45;;
23716;SDS011;22094;52.130;5.598;2024-02-15T13:50:37;6.75;;;4.00;;
23716;SDS011;22094;52.130;5.598;2024-02-15T13:53:04;11.27;;;4.32;;
23716;SDS011;22094;52.130;5.598;2024-02-15T13:55:30;9.35;;;3.97;;
23716;SDS011;22094;52.130;5.598;2024-02-15T13:57:56;7.78;;;3.83;;
23716;SDS011;22094;52.130;5.598;2024-02-15T14:00:22;5.97;;;3.70;;
23716;SDS011;22094;52.130;5.598;2024-02-15T14:02:52;8.70;;;4.00;;
23716;SDS011;22094;52.130;5.598;2024-02-15T14:05:19;7.93;;;3.75;;
23716;SDS011;22094;52.130;5.598;2024-02-15T14:07:55;5.40;;;3.67;;
23716;SDS011;22094;52.130;5.598;2024-02-15T14:10:22;9.50;;;4.43;;
23716;SDS011;22094;52.130;5.598;2024-02-15T14:12:49;9.20;;;3.83;;
23716;SDS011;22094;52.130;5.598;2024-02-15T14:15:42;7.70;;;3.95;;
23716;SDS011;22094;52.130;5.598;2024-02-15T14:18:11;6.35;;;3.72;;
23716;SDS011;22094;52.130;5.598;2024-02-15T14:20:43;7.75;;;4.00;;
23716;SDS011;22094;52.130;5.598;2024-02-15T14:23:16;8.13;;;4.13;;
23716;SDS011;22094;52.130;5.598;2024-02-15T14:25:42;8.65;;;4.30;;
23716;SDS011;22094;52.130;5.598;2024-02-15T14:28:09;7.53;;;3.90;;
23716;SDS011;22094;52.130;5.598;2024-02-15T14:30:35;6.60;;;4.00;;
23716;SDS011;22094;52.130;5.598;2024-02-15T14:33:19;6.10;;;3.85;;
23716;SDS011;22094;52.130;5.598;2024-02-15T14:35:47;9.38;;;4.13;;
23716;SDS011;22094;52.130;5.598;2024-02-15T14:38:13;5.95;;;3.83;;
23716;SDS011;22094;52.130;5.598;2024-02-15T14:40:41;7.18;;;4.05;;
23716;SDS011;22094;52.130;5.598;2024-02-15T14:43:09;5.63;;;4.10;;
23716;SDS011;22094;52.130;5.598;2024-02-15T14:45:40;9.73;;;4.18;;
23716;SDS011;22094;52.130;5.598;2024-02-15T14:48:06;10.00;;;4.07;;
23716;SDS011;22094;52.130;5.598;2024-02-15T14:50:44;8.75;;;4.15;;